sensor_id;sensor_type;location;lat;lon;timestamp;P1;durP1;ratioP1;P2;durP2;ratioP2
48588;SDS011;34369;51.174;6.738;2023-07-31T00:01:11;28.90;;;26.80;;
48588;SDS011;34369;51.174;6.738;2023-07-31T00:03:43;29.45;;;27.25;;
48588;SDS011;34369;51.174;6.738;2023-07-31T00:06:16;30.05;;;27.70;;
48588;SDS011;34369;51.174;6.738;2023-07-31T00:08:49;29.65;;;27.45;;
48588;SDS011;34369;51.174;6.738;2023-07-31T00:11:22;30.05;;;27.88;;
48588;SDS011;34369;51.174;6.738;2023-07-31T00:13:55;30.38;;;27.90;;
48588;SDS011;34369;51.174;6.738;2023-07-31T00:16:27;29.45;;;27.33;;
48588;SDS011;34369;51.174;6.738;2023-07-31T00:19:00;28.98;;;26.67;;
48588;SDS011;34369;51.174;6.738;2023-07-31T00:21:32;29.10;;;27.00;;
48588;SDS011;34369;51.174;6.738;2023-07-31T00:24:04;30.35;;;28.05;;
48588;SDS011;34369;51.174;6.738;2023-07-31T00:26:36;28.88;;;26.77;;
48588;SDS011;34369;51.174;6.738;2023-07-31T00:29:10;28.42;;;26.48;;
48588;SDS011;34369;51.174;6.738;2023-07-31T00:31:42;30.10;;;27.90;;
48588;SDS011;34369;51.174;6.738;2023-07-31T00:34:14;29.35;;;27.10;;
48588;SDS011;34369;51.174;6.738;2023-07-31T00:36:46;29.58;;;27.35;;
48588;SDS011;34369;51.174;6.738;2023-07-31T00:39:18;29.42;;;27.33;;
48588;SDS011;34369;51.174;6.738;2023-07-31T00:41:51;30.08;;;27.85;;
48588;SDS011;34369;51.174;6.738;2023-07-31T00:44:24;30.70;;;28.33;;
48588;SDS011;34369;51.174;6.738;2023-07-31T00:46:56;30.05;;;27.90;;
48588;SDS011;34369;51.174;6.738;2023-07-31T00:49:29;29.20;;;27.10;;
48588;SDS011;34369;51.174;6.738;2023-07-31T00:52:01;29.35;;;27.10;;
48588;SDS011;34369;51.174;6.738;2023-07-31T00:54:34;29.83;;;27.63;;
48588;SDS011;34369;51.174;6.738;2023-07-31T00:57:06;29.90;;;27.77;;
48588;SDS011;34369;51.174;6.738;2023-07-31T00:59:41;30.27;;;28.08;;
48588;SDS011;34369;51.174;6.738;2023-07-31T01:02:13;29.52;;;27.38;;
48588;SDS011;34369;51.174;6.738;2023-07-31T01:04:45;28.60;;;26.60;;
48588;SDS011;34369;51.174;6.738;2023-07-31T01:07:19;29.38;;;27.17;;
48588;SDS011;34369;51.174;6.738;2023-07-31T01:10:00;29.45;;;27.45;;
48588;SDS011;34369;51.174;6.738;2023-07-31T01:12:39;29.77;;;27.30;;
48588;SDS011;34369;51.174;6.738;2023-07-31T01:15:13;30.35;;;28.15;;
48588;SDS011;34369;51.174;6.738;2023-07-31T01:17:47;29.52;;;27.30;;
48588;SDS011;34369;51.174;6.738;2023-07-31T01:20:21;30.73;;;28.30;;
48588;SDS011;34369;51.174;6.738;2023-07-31T01:23:03;30.40;;;28.25;;
48588;SDS011;34369;51.174;6.738;2023-07-31T01:26:07;29.73;;;27.27;;
48588;SDS011;34369;51.174;6.738;2023-07-31T01:28:46;29.95;;;27.77;;
48588;SDS011;34369;51.174;6.738;2023-07-31T01:31:26;29.83;;;27.63;;
48588;SDS011;34369;51.174;6.738;2023-07-31T01:34:01;29.52;;;27.35;;
48588;SDS011;34369;51.174;6.738;2023-07-31T01:36:34;30.83;;;28.67;;
48588;SDS011;34369;51.174;6.738;2023-07-31T01:39:06;30.50;;;28.30;;
48588;SDS011;34369;51.174;6.738;2023-07-31T01:41:40;28.77;;;26.65;;
48588;SDS011;34369;51.174;6.738;2023-07-31T01:44:12;29.42;;;27.33;;
48588;SDS011;34369;51.174;6.738;2023-07-31T01:46:44;29.88;;;27.67;;
48588;SDS011;34369;51.174;6.738;2023-07-31T01:49:17;30.13;;;27.73;;
48588;SDS011;34369;51.174;6.738;2023-07-31T01:51:50;30.08;;;27.88;;
48588;SDS011;34369;51.174;6.738;2023-07-31T01:54:23;28.85;;;26.75;;
48588;SDS011;34369;51.174;6.738;2023-07-31T01:56:56;28.70;;;26.60;;
48588;SDS011;34369;51.174;6.738;2023-07-31T01:59:29;30.23;;;28.02;;
48588;SDS011;34369;51.174;6.738;2023-07-31T02:02:01;30.02;;;27.67;;
48588;SDS011;34369;51.174;6.738;2023-07-31T02:04:38;29.27;;;26.98;;
48588;SDS011;34369;51.174;6.738;2023-07-31T02:07:11;29.50;;;27.30;;
48588;SDS011;34369;51.174;6.738;2023-07-31T02:09:43;29.55;;;27.35;;
48588;SDS011;34369;51.174;6.738;2023-07-31T02:12:19;30.23;;;27.80;;
48588;SDS011;34369;51.174;6.738;2023-07-31T02:14:51;30.30;;;28.00;;
48588;SDS011;34369;51.174;6.738;2023-07-31T02:17:23;29.75;;;27.60;;
48588;SDS011;34369;51.174;6.738;2023-07-31T02:19:55;29.45;;;27.38;;
48588;SDS011;34369;51.174;6.738;2023-07-31T02:22:27;29.42;;;27.33;;
48588;SDS011;34369;51.174;6.738;2023-07-31T02:24:59;29.50;;;27.33;;
48588;SDS011;34369;51.174;6.738;2023-07-31T02:27:34;29.20;;;27.10;;
48588;SDS011;34369;51.174;6.738;2023-07-31T02:30:07;29.23;;;27.15;;
48588;SDS011;34369;51.174;6.738;2023-07-31T02:32:41;29.55;;;27.35;;
48588;SDS011;34369;51.174;6.738;2023-07-31T02:35:13;30.10;;;28.00;;
48588;SDS011;34369;51.174;6.738;2023-07-31T02:37:46;29.45;;;27.42;;
48588;SDS011;34369;51.174;6.738;2023-07-31T02:40:18;30.73;;;28.48;;
48588;SDS011;34369;51.174;6.738;2023-07-31T02:42:52;29.27;;;27.17;;
48588;SDS011;34369;51.174;6.738;2023-07-31T02:45:24;28.58;;;26.58;;
48588;SDS011;34369;51.174;6.738;2023-07-31T02:47:57;29.40;;;27.25;;
48588;SDS011;34369;51.174;6.738;2023-07-31T02:50:31;29.88;;;27.67;;
48588;SDS011;34369;51.174;6.738;2023-07-31T02:53:04;28.88;;;26.88;;
48588;SDS011;34369;51.174;6.738;2023-07-31T02:55:36;29.65;;;27.45;;
48588;SDS011;34369;51.174;6.738;2023-07-31T02:58:10;29.58;;;27.38;;
48588;SDS011;34369;51.174;6.738;2023-07-31T03:00:43;29.80;;;27.20;;
48588;SDS011;34369;51.174;6.738;2023-07-31T03:03:16;29.83;;;27.60;;
48588;SDS011;34369;51.174;6.738;2023-07-31T03:05:48;29.42;;;27.25;;
48588;SDS011;34369;51.174;6.738;2023-07-31T03:08:20;29.70;;;27.60;;
48588;SDS011;34369;51.174;6.738;2023-07-31T03:10:52;29.48;;;27.33;;
48588;SDS011;34369;51.174;6.738;2023-07-31T03:13:25;29.40;;;27.17;;
48588;SDS011;34369;51.174;6.738;2023-07-31T03:15:58;30.50;;;27.52;;
48588;SDS011;34369;51.174;6.738;2023-07-31T03:18:30;29.58;;;27.38;;
48588;SDS011;34369;51.174;6.738;2023-07-31T03:21:03;29.52;;;27.42;;
48588;SDS011;34369;51.174;6.738;2023-07-31T03:23:36;30.52;;;28.25;;
48588;SDS011;34369;51.174;6.738;2023-07-31T03:26:08;29.27;;;27.17;;
48588;SDS011;34369;51.174;6.738;2023-07-31T03:28:43;29.27;;;27.13;;
48588;SDS011;34369;51.174;6.738;2023-07-31T03:31:15;29.00;;;27.00;;
48588;SDS011;34369;51.174;6.738;2023-07-31T03:33:47;29.05;;;26.98;;
48588;SDS011;34369;51.174;6.738;2023-07-31T03:36:20;28.88;;;26.77;;
48588;SDS011;34369;51.174;6.738;2023-07-31T03:38:53;29.33;;;27.13;;
48588;SDS011;34369;51.174;6.738;2023-07-31T03:41:26;28.85;;;26.85;;
48588;SDS011;34369;51.174;6.738;2023-07-31T03:44:00;29.95;;;27.75;;
48588;SDS011;34369;51.174;6.738;2023-07-31T03:46:32;28.58;;;26.48;;
48588;SDS011;34369;51.174;6.738;2023-07-31T03:49:06;29.55;;;27.45;;
48588;SDS011;34369;51.174;6.738;2023-07-31T03:51:38;28.88;;;26.77;;
48588;SDS011;34369;51.174;6.738;2023-07-31T03:54:11;28.70;;;26.70;;
48588;SDS011;34369;51.174;6.738;2023-07-31T03:56:44;30.83;;;28.52;;
48588;SDS011;34369;51.174;6.738;2023-07-31T03:59:18;29.00;;;26.80;;
48588;SDS011;34369;51.174;6.738;2023-07-31T04:01:50;28.98;;;26.98;;
48588;SDS011;34369;51.174;6.738;2023-07-31T04:04:22;29.50;;;27.17;;
48588;SDS011;34369;51.174;6.738;2023-07-31T04:06:57;28.85;;;26.75;;
48588;SDS011;34369;51.174;6.738;2023-07-31T04:09:29;28.50;;;26.40;;
48588;SDS011;34369;51.174;6.738;2023-07-31T04:12:02;29.17;;;26.98;;
48588;SDS011;34369;51.174;6.738;2023-07-31T04:14:36;28.80;;;26.70;;
48588;SDS011;34369;51.174;6.738;2023-07-31T04:17:09;28.75;;;26.70;;
48588;SDS011;34369;51.174;6.738;2023-07-31T04:19:42;29.20;;;27.00;;
48588;SDS011;34369;51.174;6.738;2023-07-31T04:22:14;28.55;;;26.45;;
48588;SDS011;34369;51.174;6.738;2023-07-31T04:24:47;29.63;;;27.38;;
48588;SDS011;34369;51.174;6.738;2023-07-31T04:27:19;29.45;;;27.25;;
48588;SDS011;34369;51.174;6.738;2023-07-31T04:29:54;28.95;;;26.80;;
48588;SDS011;34369;51.174;6.738;2023-07-31T04:32:26;28.73;;;26.52;;
48588;SDS011;34369;51.174;6.738;2023-07-31T04:34:59;29.13;;;27.02;;
48588;SDS011;34369;51.174;6.738;2023-07-31T04:37:32;29.50;;;27.15;;
48588;SDS011;34369;51.174;6.738;2023-07-31T04:40:05;29.40;;;27.10;;
48588;SDS011;34369;51.174;6.738;2023-07-31T04:42:40;28.90;;;26.70;;
48588;SDS011;34369;51.174;6.738;2023-07-31T04:45:14;28.85;;;26.75;;
48588;SDS011;34369;51.174;6.738;2023-07-31T04:47:46;28.95;;;26.85;;
48588;SDS011;34369;51.174;6.738;2023-07-31T04:50:19;28.63;;;26.33;;
48588;SDS011;34369;51.174;6.738;2023-07-31T04:52:51;29.02;;;26.83;;
48588;SDS011;34369;51.174;6.738;2023-07-31T04:55:25;28.13;;;25.95;;
48588;SDS011;34369;51.174;6.738;2023-07-31T04:57:59;28.70;;;26.52;;
48588;SDS011;34369;51.174;6.738;2023-07-31T05:00:33;28.55;;;26.45;;
48588;SDS011;34369;51.174;6.738;2023-07-31T05:03:07;28.23;;;26.23;;
48588;SDS011;34369;51.174;6.738;2023-07-31T05:05:40;28.05;;;26.05;;
48588;SDS011;34369;51.174;6.738;2023-07-31T05:08:13;28.95;;;26.90;;
48588;SDS011;34369;51.174;6.738;2023-07-31T05:10:47;28.42;;;26.35;;
48588;SDS011;34369;51.174;6.738;2023-07-31T05:13:19;28.15;;;26.05;;
48588;SDS011;34369;51.174;6.738;2023-07-31T05:15:55;29.35;;;26.95;;
48588;SDS011;34369;51.174;6.738;2023-07-31T05:18:28;27.77;;;25.65;;
48588;SDS011;34369;51.174;6.738;2023-07-31T05:21:01;28.27;;;26.38;;
48588;SDS011;34369;51.174;6.738;2023-07-31T05:23:33;27.88;;;25.83;;
48588;SDS011;34369;51.174;6.738;2023-07-31T05:26:07;28.48;;;26.38;;
48588;SDS011;34369;51.174;6.738;2023-07-31T05:28:41;27.65;;;25.55;;
48588;SDS011;34369;51.174;6.738;2023-07-31T05:31:15;28.42;;;26.33;;
48588;SDS011;34369;51.174;6.738;2023-07-31T05:33:50;28.15;;;26.25;;
48588;SDS011;34369;51.174;6.738;2023-07-31T05:36:22;28.25;;;26.23;;
48588;SDS011;34369;51.174;6.738;2023-07-31T05:38:55;28.20;;;26.10;;
48588;SDS011;34369;51.174;6.738;2023-07-31T05:41:27;26.65;;;24.65;;
48588;SDS011;34369;51.174;6.738;2023-07-31T05:44:01;26.90;;;24.90;;
48588;SDS011;34369;51.174;6.738;2023-07-31T05:46:35;27.45;;;25.50;;
48588;SDS011;34369;51.174;6.738;2023-07-31T05:49:07;27.25;;;25.25;;
48588;SDS011;34369;51.174;6.738;2023-07-31T05:51:39;28.00;;;26.00;;
48588;SDS011;34369;51.174;6.738;2023-07-31T05:54:13;26.13;;;24.23;;
48588;SDS011;34369;51.174;6.738;2023-07-31T05:56:46;26.50;;;24.58;;
48588;SDS011;34369;51.174;6.738;2023-07-31T05:59:20;27.17;;;25.25;;
48588;SDS011;34369;51.174;6.738;2023-07-31T06:01:55;27.25;;;25.33;;
48588;SDS011;34369;51.174;6.738;2023-07-31T06:04:27;26.33;;;24.30;;
48588;SDS011;34369;51.174;6.738;2023-07-31T06:07:03;27.23;;;25.33;;
48588;SDS011;34369;51.174;6.738;2023-07-31T06:09:37;28.02;;;26.00;;
48588;SDS011;34369;51.174;6.738;2023-07-31T06:12:09;27.23;;;25.33;;
48588;SDS011;34369;51.174;6.738;2023-07-31T06:14:42;28.13;;;26.17;;
48588;SDS011;34369;51.174;6.738;2023-07-31T06:17:18;28.40;;;26.40;;
48588;SDS011;34369;51.174;6.738;2023-07-31T06:19:51;28.17;;;26.20;;
48588;SDS011;34369;51.174;6.738;2023-07-31T06:22:24;26.85;;;24.85;;
48588;SDS011;34369;51.174;6.738;2023-07-31T06:24:57;27.85;;;25.95;;
48588;SDS011;34369;51.174;6.738;2023-07-31T06:27:30;28.05;;;26.05;;
48588;SDS011;34369;51.174;6.738;2023-07-31T06:30:03;27.75;;;25.85;;
48588;SDS011;34369;51.174;6.738;2023-07-31T06:32:38;27.15;;;25.17;;
48588;SDS011;34369;51.174;6.738;2023-07-31T06:35:12;27.27;;;25.27;;
48588;SDS011;34369;51.174;6.738;2023-07-31T06:37:45;28.67;;;26.27;;
48588;SDS011;34369;51.174;6.738;2023-07-31T06:40:17;27.55;;;25.55;;
48588;SDS011;34369;51.174;6.738;2023-07-31T06:42:51;28.70;;;26.55;;
48588;SDS011;34369;51.174;6.738;2023-07-31T06:45:24;27.80;;;25.80;;
48588;SDS011;34369;51.174;6.738;2023-07-31T06:47:57;27.60;;;25.40;;
48588;SDS011;34369;51.174;6.738;2023-07-31T06:50:31;28.35;;;26.35;;
48588;SDS011;34369;51.174;6.738;2023-07-31T06:53:05;27.67;;;25.67;;
48588;SDS011;34369;51.174;6.738;2023-07-31T06:55:37;28.10;;;25.90;;
48588;SDS011;34369;51.174;6.738;2023-07-31T06:58:10;27.33;;;25.35;;
48588;SDS011;34369;51.174;6.738;2023-07-31T07:00:43;27.63;;;25.63;;
48588;SDS011;34369;51.174;6.738;2023-07-31T07:03:17;27.48;;;25.48;;
48588;SDS011;34369;51.174;6.738;2023-07-31T07:05:50;28.05;;;26.13;;
48588;SDS011;34369;51.174;6.738;2023-07-31T07:08:23;26.83;;;24.83;;
48588;SDS011;34369;51.174;6.738;2023-07-31T07:10:56;27.70;;;25.60;;
48588;SDS011;34369;51.174;6.738;2023-07-31T07:13:28;28.08;;;26.08;;
48588;SDS011;34369;51.174;6.738;2023-07-31T07:16:00;27.88;;;25.88;;
48588;SDS011;34369;51.174;6.738;2023-07-31T07:18:35;28.67;;;26.60;;
48588;SDS011;34369;51.174;6.738;2023-07-31T07:21:07;27.10;;;25.15;;
48588;SDS011;34369;51.174;6.738;2023-07-31T07:23:44;27.10;;;25.17;;
48588;SDS011;34369;51.174;6.738;2023-07-31T07:26:17;27.20;;;25.30;;
48588;SDS011;34369;51.174;6.738;2023-07-31T07:28:49;26.98;;;24.98;;
48588;SDS011;34369;51.174;6.738;2023-07-31T07:31:21;27.15;;;25.15;;
48588;SDS011;34369;51.174;6.738;2023-07-31T07:33:55;27.60;;;25.60;;
48588;SDS011;34369;51.174;6.738;2023-07-31T07:36:28;27.63;;;25.67;;
48588;SDS011;34369;51.174;6.738;2023-07-31T07:39:02;28.05;;;25.88;;
48588;SDS011;34369;51.174;6.738;2023-07-31T07:41:35;27.30;;;25.30;;
48588;SDS011;34369;51.174;6.738;2023-07-31T07:44:07;26.80;;;24.90;;
48588;SDS011;34369;51.174;6.738;2023-07-31T07:46:40;27.42;;;25.38;;
48588;SDS011;34369;51.174;6.738;2023-07-31T07:49:14;27.33;;;25.35;;
48588;SDS011;34369;51.174;6.738;2023-07-31T07:51:46;27.73;;;25.48;;
48588;SDS011;34369;51.174;6.738;2023-07-31T07:54:20;27.58;;;25.67;;
48588;SDS011;34369;51.174;6.738;2023-07-31T07:56:52;27.08;;;25.17;;
48588;SDS011;34369;51.174;6.738;2023-07-31T07:59:25;27.10;;;25.20;;
48588;SDS011;34369;51.174;6.738;2023-07-31T08:01:57;27.02;;;25.13;;
48588;SDS011;34369;51.174;6.738;2023-07-31T08:04:32;26.92;;;25.02;;
48588;SDS011;34369;51.174;6.738;2023-07-31T08:07:05;27.20;;;25.30;;
48588;SDS011;34369;51.174;6.738;2023-07-31T08:09:37;27.70;;;25.63;;
48588;SDS011;34369;51.174;6.738;2023-07-31T08:12:10;27.50;;;25.30;;
48588;SDS011;34369;51.174;6.738;2023-07-31T08:14:42;26.85;;;24.85;;
48588;SDS011;34369;51.174;6.738;2023-07-31T08:17:14;27.02;;;25.02;;
48588;SDS011;34369;51.174;6.738;2023-07-31T08:19:48;27.13;;;25.15;;
48588;SDS011;34369;51.174;6.738;2023-07-31T08:22:21;27.45;;;25.55;;
48588;SDS011;34369;51.174;6.738;2023-07-31T08:24:54;26.65;;;24.85;;
48588;SDS011;34369;51.174;6.738;2023-07-31T08:27:26;27.00;;;25.00;;
48588;SDS011;34369;51.174;6.738;2023-07-31T08:29:58;26.55;;;24.70;;
48588;SDS011;34369;51.174;6.738;2023-07-31T08:32:30;27.33;;;25.33;;
48588;SDS011;34369;51.174;6.738;2023-07-31T08:35:05;27.48;;;25.58;;
48588;SDS011;34369;51.174;6.738;2023-07-31T08:37:38;27.83;;;25.80;;
48588;SDS011;34369;51.174;6.738;2023-07-31T08:40:10;27.20;;;25.30;;
48588;SDS011;34369;51.174;6.738;2023-07-31T08:42:44;27.33;;;25.42;;
48588;SDS011;34369;51.174;6.738;2023-07-31T08:45:17;27.17;;;25.27;;
48588;SDS011;34369;51.174;6.738;2023-07-31T08:47:51;27.02;;;25.20;;
48588;SDS011;34369;51.174;6.738;2023-07-31T08:50:26;27.63;;;25.77;;
48588;SDS011;34369;51.174;6.738;2023-07-31T08:52:59;26.77;;;24.77;;
48588;SDS011;34369;51.174;6.738;2023-07-31T08:55:32;27.15;;;25.25;;
48588;SDS011;34369;51.174;6.738;2023-07-31T08:58:05;27.55;;;25.60;;
48588;SDS011;34369;51.174;6.738;2023-07-31T09:00:37;26.65;;;24.75;;
48588;SDS011;34369;51.174;6.738;2023-07-31T09:03:12;27.02;;;24.92;;
48588;SDS011;34369;51.174;6.738;2023-07-31T09:05:48;27.80;;;25.80;;
48588;SDS011;34369;51.174;6.738;2023-07-31T09:08:21;28.08;;;26.17;;
48588;SDS011;34369;51.174;6.738;2023-07-31T09:10:59;27.33;;;25.40;;
48588;SDS011;34369;51.174;6.738;2023-07-31T09:13:31;27.25;;;25.35;;
48588;SDS011;34369;51.174;6.738;2023-07-31T09:16:03;27.60;;;25.70;;
48588;SDS011;34369;51.174;6.738;2023-07-31T09:18:41;27.63;;;25.65;;
48588;SDS011;34369;51.174;6.738;2023-07-31T09:21:29;27.25;;;25.25;;
48588;SDS011;34369;51.174;6.738;2023-07-31T09:24:01;27.77;;;25.88;;
48588;SDS011;34369;51.174;6.738;2023-07-31T09:26:34;27.55;;;25.65;;
48588;SDS011;34369;51.174;6.738;2023-07-31T09:29:18;26.73;;;24.83;;
48588;SDS011;34369;51.174;6.738;2023-07-31T09:31:51;27.23;;;25.27;;
48588;SDS011;34369;51.174;6.738;2023-07-31T09:34:28;27.10;;;25.20;;
48588;SDS011;34369;51.174;6.738;2023-07-31T09:37:04;27.77;;;25.63;;
48588;SDS011;34369;51.174;6.738;2023-07-31T09:39:45;27.83;;;25.83;;
48588;SDS011;34369;51.174;6.738;2023-07-31T09:42:24;27.48;;;25.48;;
48588;SDS011;34369;51.174;6.738;2023-07-31T09:45:08;26.67;;;24.85;;
48588;SDS011;34369;51.174;6.738;2023-07-31T09:47:45;27.35;;;25.42;;
48588;SDS011;34369;51.174;6.738;2023-07-31T09:50:20;27.50;;;25.60;;
48588;SDS011;34369;51.174;6.738;2023-07-31T09:52:55;26.98;;;25.10;;
48588;SDS011;34369;51.174;6.738;2023-07-31T09:55:28;27.23;;;25.23;;
48588;SDS011;34369;51.174;6.738;2023-07-31T09:58:03;27.10;;;25.20;;
48588;SDS011;34369;51.174;6.738;2023-07-31T10:00:38;27.20;;;25.30;;
48588;SDS011;34369;51.174;6.738;2023-07-31T10:03:12;27.80;;;25.88;;
48588;SDS011;34369;51.174;6.738;2023-07-31T10:05:47;26.85;;;24.95;;
48588;SDS011;34369;51.174;6.738;2023-07-31T10:08:28;27.13;;;25.10;;
48588;SDS011;34369;51.174;6.738;2023-07-31T10:11:03;27.50;;;25.60;;
48588;SDS011;34369;51.174;6.738;2023-07-31T10:13:37;27.20;;;25.10;;
48588;SDS011;34369;51.174;6.738;2023-07-31T10:16:10;26.70;;;24.60;;
48588;SDS011;34369;51.174;6.738;2023-07-31T10:18:46;26.42;;;24.63;;
48588;SDS011;34369;51.174;6.738;2023-07-31T10:21:20;26.65;;;24.77;;
48588;SDS011;34369;51.174;6.738;2023-07-31T10:23:54;27.00;;;25.10;;
48588;SDS011;34369;51.174;6.738;2023-07-31T10:26:29;26.08;;;24.15;;
48588;SDS011;34369;51.174;6.738;2023-07-31T10:29:04;26.42;;;24.63;;
48588;SDS011;34369;51.174;6.738;2023-07-31T10:31:38;27.35;;;25.35;;
48588;SDS011;34369;51.174;6.738;2023-07-31T10:34:12;26.20;;;24.30;;
48588;SDS011;34369;51.174;6.738;2023-07-31T10:36:45;26.77;;;24.58;;
48588;SDS011;34369;51.174;6.738;2023-07-31T10:39:36;25.90;;;24.00;;
48588;SDS011;34369;51.174;6.738;2023-07-31T10:42:09;26.45;;;24.55;;
48588;SDS011;34369;51.174;6.738;2023-07-31T10:44:43;25.85;;;23.92;;
48588;SDS011;34369;51.174;6.738;2023-07-31T10:47:17;25.23;;;23.42;;
48588;SDS011;34369;51.174;6.738;2023-07-31T10:49:50;25.73;;;23.88;;
48588;SDS011;34369;51.174;6.738;2023-07-31T10:52:22;26.88;;;24.90;;
48588;SDS011;34369;51.174;6.738;2023-07-31T10:57:58;25.35;;;23.35;;
48588;SDS011;34369;51.174;6.738;2023-07-31T11:00:38;25.38;;;23.48;;
48588;SDS011;34369;51.174;6.738;2023-07-31T11:03:13;25.75;;;23.83;;
48588;SDS011;34369;51.174;6.738;2023-07-31T11:05:48;25.17;;;23.30;;
48588;SDS011;34369;51.174;6.738;2023-07-31T11:08:24;25.10;;;23.30;;
48588;SDS011;34369;51.174;6.738;2023-07-31T11:11:08;25.30;;;23.50;;
48588;SDS011;34369;51.174;6.738;2023-07-31T11:13:43;24.95;;;23.15;;
48588;SDS011;34369;51.174;6.738;2023-07-31T11:16:19;25.27;;;23.58;;
48588;SDS011;34369;51.174;6.738;2023-07-31T11:18:54;24.90;;;23.10;;
48588;SDS011;34369;51.174;6.738;2023-07-31T11:21:26;24.80;;;23.10;;
48588;SDS011;34369;51.174;6.738;2023-07-31T11:24:01;24.60;;;22.98;;
48588;SDS011;34369;51.174;6.738;2023-07-31T11:26:35;23.73;;;21.90;;
48588;SDS011;34369;51.174;6.738;2023-07-31T11:29:10;24.33;;;22.63;;
48588;SDS011;34369;51.174;6.738;2023-07-31T11:31:46;24.02;;;22.42;;
48588;SDS011;34369;51.174;6.738;2023-07-31T11:34:19;24.33;;;22.58;;
48588;SDS011;34369;51.174;6.738;2023-07-31T11:36:54;24.52;;;22.65;;
48588;SDS011;34369;51.174;6.738;2023-07-31T11:39:27;24.40;;;22.70;;
48588;SDS011;34369;51.174;6.738;2023-07-31T11:42:01;24.45;;;22.65;;
48588;SDS011;34369;51.174;6.738;2023-07-31T11:44:38;24.67;;;22.98;;
48588;SDS011;34369;51.174;6.738;2023-07-31T11:47:13;23.90;;;22.20;;
48588;SDS011;34369;51.174;6.738;2023-07-31T11:49:46;24.30;;;22.50;;
48588;SDS011;34369;51.174;6.738;2023-07-31T11:52:20;24.70;;;23.00;;
48588;SDS011;34369;51.174;6.738;2023-07-31T11:54:53;24.40;;;22.67;;
48588;SDS011;34369;51.174;6.738;2023-07-31T11:57:28;24.20;;;22.50;;
48588;SDS011;34369;51.174;6.738;2023-07-31T12:00:01;24.02;;;22.33;;
48588;SDS011;34369;51.174;6.738;2023-07-31T12:02:35;25.23;;;23.40;;
48588;SDS011;34369;51.174;6.738;2023-07-31T12:05:10;25.60;;;23.80;;
48588;SDS011;34369;51.174;6.738;2023-07-31T12:07:44;38.92;;;35.58;;
48588;SDS011;34369;51.174;6.738;2023-07-31T12:10:22;28.42;;;26.35;;
48588;SDS011;34369;51.174;6.738;2023-07-31T12:13:01;24.77;;;22.88;;
48588;SDS011;34369;51.174;6.738;2023-07-31T12:15:37;24.80;;;23.00;;
48588;SDS011;34369;51.174;6.738;2023-07-31T12:18:12;24.65;;;22.95;;
48588;SDS011;34369;51.174;6.738;2023-07-31T12:20:47;24.77;;;23.08;;
48588;SDS011;34369;51.174;6.738;2023-07-31T12:23:21;24.50;;;22.80;;
48588;SDS011;34369;51.174;6.738;2023-07-31T12:26:01;24.40;;;22.70;;
48588;SDS011;34369;51.174;6.738;2023-07-31T12:28:37;24.92;;;22.90;;
48588;SDS011;34369;51.174;6.738;2023-07-31T12:31:15;24.60;;;22.90;;
48588;SDS011;34369;51.174;6.738;2023-07-31T12:33:51;24.88;;;23.13;;
48588;SDS011;34369;51.174;6.738;2023-07-31T12:36:23;25.00;;;23.30;;
48588;SDS011;34369;51.174;6.738;2023-07-31T12:38:58;24.15;;;22.48;;
48588;SDS011;34369;51.174;6.738;2023-07-31T12:41:30;24.90;;;23.10;;
48588;SDS011;34369;51.174;6.738;2023-07-31T12:44:04;24.33;;;22.52;;
48588;SDS011;34369;51.174;6.738;2023-07-31T12:46:36;24.75;;;23.05;;
48588;SDS011;34369;51.174;6.738;2023-07-31T12:49:09;24.40;;;22.70;;
48588;SDS011;34369;51.174;6.738;2023-07-31T12:51:41;23.80;;;22.20;;
48588;SDS011;34369;51.174;6.738;2023-07-31T12:54:13;24.27;;;22.58;;
48588;SDS011;34369;51.174;6.738;2023-07-31T12:56:45;24.90;;;23.20;;
48588;SDS011;34369;51.174;6.738;2023-07-31T12:59:19;25.05;;;23.25;;
48588;SDS011;34369;51.174;6.738;2023-07-31T13:01:52;24.48;;;22.67;;
48588;SDS011;34369;51.174;6.738;2023-07-31T13:04:24;25.58;;;23.70;;
48588;SDS011;34369;51.174;6.738;2023-07-31T13:06:56;25.08;;;23.17;;
48588;SDS011;34369;51.174;6.738;2023-07-31T13:09:29;24.55;;;22.75;;
48588;SDS011;34369;51.174;6.738;2023-07-31T13:12:02;25.17;;;23.48;;
48588;SDS011;34369;51.174;6.738;2023-07-31T13:14:37;24.77;;;22.98;;
48588;SDS011;34369;51.174;6.738;2023-07-31T13:17:11;24.45;;;22.75;;
48588;SDS011;34369;51.174;6.738;2023-07-31T13:19:43;24.75;;;22.95;;
48588;SDS011;34369;51.174;6.738;2023-07-31T13:22:15;24.98;;;23.17;;
48588;SDS011;34369;51.174;6.738;2023-07-31T13:24:48;24.23;;;22.52;;
48588;SDS011;34369;51.174;6.738;2023-07-31T13:27:23;25.35;;;23.45;;
48588;SDS011;34369;51.174;6.738;2023-07-31T13:29:57;24.42;;;22.67;;
48588;SDS011;34369;51.174;6.738;2023-07-31T13:32:30;24.43;;;22.63;;
48588;SDS011;34369;51.174;6.738;2023-07-31T13:35:03;24.13;;;22.42;;
48588;SDS011;34369;51.174;6.738;2023-07-31T13:37:37;24.17;;;22.38;;
48588;SDS011;34369;51.174;6.738;2023-07-31T13:40:10;24.23;;;22.33;;
48588;SDS011;34369;51.174;6.738;2023-07-31T13:42:43;24.75;;;22.92;;
48588;SDS011;34369;51.174;6.738;2023-07-31T13:45:18;24.83;;;22.77;;
48588;SDS011;34369;51.174;6.738;2023-07-31T13:47:51;23.80;;;22.10;;
48588;SDS011;34369;51.174;6.738;2023-07-31T13:50:23;24.08;;;22.27;;
48588;SDS011;34369;51.174;6.738;2023-07-31T13:52:56;23.75;;;22.05;;
48588;SDS011;34369;51.174;6.738;2023-07-31T13:55:28;23.73;;;21.92;;
48588;SDS011;34369;51.174;6.738;2023-07-31T13:58:02;24.10;;;22.30;;
48588;SDS011;34369;51.174;6.738;2023-07-31T14:00:35;24.30;;;22.60;;
48588;SDS011;34369;51.174;6.738;2023-07-31T14:03:08;23.65;;;21.75;;
48588;SDS011;34369;51.174;6.738;2023-07-31T14:05:40;24.83;;;23.13;;
48588;SDS011;34369;51.174;6.738;2023-07-31T14:08:13;24.33;;;22.50;;
48588;SDS011;34369;51.174;6.738;2023-07-31T14:10:45;24.10;;;22.30;;
48588;SDS011;34369;51.174;6.738;2023-07-31T14:13:17;23.73;;;22.10;;
48588;SDS011;34369;51.174;6.738;2023-07-31T14:15:50;24.40;;;22.58;;
48588;SDS011;34369;51.174;6.738;2023-07-31T14:18:23;24.25;;;22.52;;
48588;SDS011;34369;51.174;6.738;2023-07-31T14:20:56;24.48;;;22.70;;
48588;SDS011;34369;51.174;6.738;2023-07-31T14:23:28;24.15;;;22.35;;
48588;SDS011;34369;51.174;6.738;2023-07-31T14:26:01;24.80;;;22.95;;
48588;SDS011;34369;51.174;6.738;2023-07-31T14:28:33;24.73;;;22.90;;
48588;SDS011;34369;51.174;6.738;2023-07-31T14:31:07;24.90;;;23.02;;
48588;SDS011;34369;51.174;6.738;2023-07-31T14:33:39;24.35;;;22.65;;
48588;SDS011;34369;51.174;6.738;2023-07-31T14:36:11;25.08;;;23.27;;
48588;SDS011;34369;51.174;6.738;2023-07-31T14:38:44;25.55;;;23.75;;
48588;SDS011;34369;51.174;6.738;2023-07-31T14:41:16;24.77;;;23.08;;
48588;SDS011;34369;51.174;6.738;2023-07-31T14:43:49;25.73;;;23.83;;
48588;SDS011;34369;51.174;6.738;2023-07-31T14:46:22;24.60;;;22.83;;
48588;SDS011;34369;51.174;6.738;2023-07-31T14:48:55;25.08;;;23.17;;
48588;SDS011;34369;51.174;6.738;2023-07-31T14:51:27;24.73;;;22.92;;
48588;SDS011;34369;51.174;6.738;2023-07-31T14:54:00;24.95;;;23.05;;
48588;SDS011;34369;51.174;6.738;2023-07-31T14:56:32;24.48;;;22.70;;
48588;SDS011;34369;51.174;6.738;2023-07-31T14:59:05;24.80;;;23.00;;
48588;SDS011;34369;51.174;6.738;2023-07-31T15:01:39;24.80;;;23.00;;